KCID/CID METAR and TAF weather

Enter ICAO airport designator
Station Type Date Time Source
KCID METAR 2019/04/25 21:52 UTC NOAA

KCID 252152Z 35020G32KT 9SM -RA OVC043 11/09 A2983 RMK AO2 PK WND 01036/2114 RAB2053 SLP103 P0001 T01110089


Station Type Date Time Source
KCID Decoded METAR 2019/04/25 21:52 UTC NOAA

CEDAR RAPIDS AIRPORT, IA, United States (KCID) 41-53N 91-43W
Apr 25, 2019 - 05:52 PM EDT / 2019.04.25 2152 UTC
Wind: from the N (350 degrees) at 23 MPH (20 KT) gusting to 37 MPH (32 KT):0
Visibility: 9 mile(s):0
Sky conditions: overcast
Weather: light rain
Precipitation last hour: 0.01 inches
Temperature: 52.0 F (11.1 C)
Dew Point: 48.0 F (8.9 C)
Relative Humidity: 86%
Pressure (altimeter): 29.83 in. Hg (1010 hPa)
ob: KCID 252152Z 35020G32KT 9SM -RA OVC043 11/09 A2983 RMK AO2 PK WND 01036/2114 RAB2053 SLP103 P0001 T01110089
cycle: 22

Station Type Date Time Source
KCID TAF 2019/04/25 18:30 UTC NOAA

TAF KCID 251728Z 2518/2618 33007KT P6SM SCT030 BKN045
FM252300 35015G23KT P6SM VCSH SCT030 BKN070
FM260100 34014KT P6SM FEW035 SCT130
FM261200 32014KT P6SM SKC

Example: see airport list